Gallup, NM (87375)

2:16 PM MDT on September 21, 2014 (GMT -0600)
Gallup Municipal | Change Station
CLOSE
Current Station
Airport
Location: Gallup,
Elevation: 6470 ft
Nearby Weather Stations

Elev 6470 ft 35.51 °N, 108.79 °W | Updated 23 minutes ago

Mostly Cloudy
Mostly Cloudy
78 °F
Feels Like 78 °F
N
14
Wind Variable Wind from SE
Gusts 22 mph

Today
High -- | Low -- °F
--% Chance of Precip.
Yesterday
High -- | Low -- °F
Precip. -- in
7:02 AM 7:13 PM
Waning Crescent, 5% visible
Pressure 29.79 in
Visibility 10.0 miles
Clouds Scattered Clouds 5000 ft
Mostly Cloudy 6000 ft
Mostly Cloudy 12000 ft
Dew Point 52 °F
Humidity 40%
Rainfall 0.02 in
Snow Depth 0 in , 1 in , 0 in
UV 5 out of 12
Pollen 6.30 out of 12
Air Quality Not available.
Flu Activity Not available.
METAR KGUP 211953Z AUTO 13012G19KT 10SM SCT050 BKN060 BKN120 26/11 A3027 RMK AO2 LTG DSNT W AND NW SLP088 T02560111

More Conditions Fewer Conditions

Pressure 29.79 in
Visibility 10.0 miles
Clouds Scattered Clouds 5000 ft
Mostly Cloudy 6000 ft
Mostly Cloudy 12000 ft
Dew Point 52 °F
Humidity 40%
Rainfall 0.02 in
Snow Depth 0 in , 1 in , 0 in
UV 5 out of 12
Pollen 6.30 out of 12
Air Quality Not available.
Flu Activity Not available.
METAR KGUP 211953Z AUTO 13012G19KT 10SM SCT050 BKN060 BKN120 26/11 A3027 RMK AO2 LTG DSNT W AND NW SLP088 T02560111

More Conditions Fewer Conditions

Nowcast | as of 2:06 PM MDT on September 21, 2014

Through 4 PM MDT...isolated showers and thunderstorms will continue to move north to northeast at 10 to 15 mph across western into central New Mexico. The stronger storms will be capable of heavy rain...pea size hail...wind gusts to 45 mph and dangerous cloud to ground lightning. Rainfall amounts should range from a quarter to one half...and locally up to one inch. Locations impacted by the heavy rain include the National radio astronomy observatory... Magdalena...Escondida...lemintar...La Joya...Bernardo...El Morro... Bluewater Lake...Twin Lakes and Thoreau.

×

10-Day Weather Forecast

Almanac

Astronomy

Sep. 21, 2014 Rise Set
Actual Time 7:02 AM MDT 7:13 PM MDT
Civil Twilight 6:36 AM MDT 7:38 PM MDT
Nautical Twilight 6:07 AM MDT 8:08 PM MDT
Astronomical Twilight 5:36 AM MDT 8:38 PM MDT
Moon 4:42 AM MDT 5:48 PM MDT
Length of Visible Light 13h 01m
Length of Day
12h 10m
Tomorrow will be 2m 13s shorter.
Waning Crescent, 5% of the Moon is Illuminated
Today
Waning Crescent
Sep 24
New
Oct 1
First Quarter
Oct 8
Full
Oct 15
Last Quarter

Today's Extremes

State Highs State Lows

Community

WunderPhotos

Upload Photos

1,755,243 photos uploaded!

Nearby

Snow Depth

Station Depth Elevation
North Costilla 0 in 10600 ft
Wesner Springs 2 in 11120 ft
Silver Creek Divide 1 in 9000 ft
Gallegos Peak 0 in 9800 ft
Red River Pass #2 0 in 9850 ft

Earthquake Activity

City Distance Mag. Time & Date
No recent earthquake activity has been reported nearby.
Minimum magnitude displayed is 2.5.

Coastal Water Temperatures

Place Temperature
No Stations Reporting

Nearby Weather Stations